x

Sheboygan, Wi (sgnw3) Weather Station

4:00pm - Fri 27th Feb 2015 All times are CST. -6 hours from GMT.

  • Wind
    14mph, 17mph gusts
  • Air Temp 17°f
  • Sea Pressure 1035.3mb
  • Sheboygan, Wi
  • Sheboygan, Wi

More Historic Weather Station data

Upgrade to MSW Pro to gain access to the past 30 days of data for over 8000 Wavebouys and Weather Stations around the globe.

Join Pro

Comparision Forecast

View Surf forecast
   
Fri 02/27 4:00pm 14 17 mph 1035.3mb 17f
3:00pm 10 14 mph 1035.4mb 17f
2:00pm 13 15 mph 1035.3mb 15f
1:00pm 14 17 mph 1035.7mb 14f
12:00pm 13 16 mph 1036.1mb 13f
11:00am 14 17 mph 1036.3mb 11f
10:00am 10 14 mph 1036.2mb 10f
9:00am 9 11 mph 1036.1mb 7f
8:00am 9 11 mph 1035.5mb 4f
7:00am 9 11 mph 1034.7mb 3f
6:00am 10 11 mph 1034.2mb 2f
5:00am 10 13 mph 1033.5mb 3f
4:00am 11 14 mph 1032.9mb 3f
3:00am 13 14 mph 1032.4mb 4f
2:00am 13 16 mph 1032.1mb 5f
1:00am 14 16 mph 1031.8mb 5f
12:00am 14 16 mph 1031.5mb 6f
Thu 02/26 11:00pm 13 16 mph 1031.3mb 6f
10:00pm 9 10 mph 1031.4mb 7f
9:00pm 7
mph
1030.9mb 8f
8:00pm 5 6 mph 1030.6mb 10f
7:00pm 5 6 mph 1030.4mb 10f
6:00pm 9 10 mph 1029.8mb 10f
5:00pm 13 14 mph 1029.1mb 10f
4:00pm 11 15 mph 1028.5mb 10f
3:00pm 13 15 mph 1028.3mb 10f
2:00pm 13 15 mph 1027.9mb 9f
1:00pm 18 22 mph 1027.7mb 9f
12:00pm 20 24 mph 1027.7mb 9f
11:00am 18 21 mph 1027.3mb 9f
10:00am 21 24 mph 1027.2mb 8f
9:00am 23 25 mph 1026.9mb 8f
8:00am 20 24 mph 1026.6mb 6f
7:00am 17 21 mph 1025.8mb 4f
6:00am 14 17 mph 1024.8mb 5f
5:00am 18 22 mph 1023.9mb 5f
4:00am 23 29 mph 1023mb 8f
3:00am 26 33 mph 1022.6mb 9f
2:00am 28 32 mph 1022.6mb 9f
1:00am 25 31 mph 1021.8mb 12f
12:00am 21 24 mph 1021.3mb 14f
Wed 02/25 11:00pm 20 23 mph 1021.1mb 15f
10:00pm 15 18 mph 1021.1mb 16f
9:00pm 14 17 mph 1020.9mb 15f
8:00pm 13 15 mph 1020.4mb 15f
7:00pm 13 16 mph 1019.9mb 15f
6:00pm 9 11 mph 1019.1mb 15f
5:00pm 9 10 mph 1018.2mb 15f
4:00pm 3 5 mph 1018.2mb 14f
3:00pm 5 6 mph 1017.9mb 14f
2:00pm 2 5 mph 1018mb 13f
1:00pm 3 6 mph 1018.3mb 13f
12:00pm 3
mph
1019mb 12f
11:00am  -  3 mph 1019.1mb 11f
10:00am 6 8 mph 1018.8mb 10f
9:00am 9 11 mph 1017.8mb 9f
8:00am 10 13 mph 1017.4mb 8f
7:00am 10 13 mph 1016.6mb 7f
6:00am 11 14 mph 1015.5mb 8f
5:00am 13 15 mph 1015mb 10f
4:00am 13 15 mph 1014.9mb 8f
3:00am 13 14 mph 1014.8mb 9f
2:00am 14 20 mph 1013.9mb 10f
1:00am 16 21 mph 1013.1mb 12f
12:00am 22 25 mph 1012.1mb 14f
Tue 02/24 11:00pm 25 29 mph 1011mb 16f
10:00pm 26 30 mph 1009.4mb 19f
9:00pm 17 20 mph 1007.2mb 25f
8:00pm 20 24 mph 1005.6mb 27f
7:00pm 21 24 mph 1004.6mb 28f
6:00pm 21 28 mph 1003.1mb 30f
5:00pm 22 26 mph 1001.6mb 32f
4:00pm 17 21 mph 1000.9mb 32f
3:00pm 20 24 mph 1001mb 31f
2:00pm 21 26 mph 1001.4mb 29f
1:00pm 23 28 mph 1001.9mb 27f
12:00pm 23 31 mph 1002.8mb 25f
11:00am 20 23 mph 1003.6mb 23f
10:00am 29 33 mph 1003.9mb 19f
9:00am 28 33 mph 1004.3mb 17f
8:00am 26 31 mph 1005.8mb 16f
7:00am 20 23 mph 1007mb 16f
6:00am 22 26 mph 1007.9mb 16f
5:00am 23 26 mph 1008.8mb 14f
4:00am 22 26 mph 1010.8mb 13f
3:00am 26 31 mph 1013.1mb 13f
2:00am 28 34 mph 1016.1mb 12f
1:00am 23 30 mph 1018.8mb 11f
12:00am 23 29 mph 1020.2mb 9f